Time;durP1;ratioP1;P1;durP2;ratioP2;P2;SDS_P1;SDS_P2;PMS_P1;PMS_P2;Temp;Humidity;BMP_temperature;BMP_pressure;BME280_temperature;BME280_humidity;BME280_pressure;Samples;Min_cycle;Max_cycle;Signal;HPM_P1;HPM_P2
2021/09/03 00:02:22;;;;;;;24.40;21.07;;;13.70;1.00;;;;;;6152791;23;20379;-80
2021/09/03 00:04:50;;;;;;;26.07;23.13;;;13.60;1.00;;;;;;6153666;23;20391;-80
2021/09/03 00:07:18;;;;;;;23.33;20.90;;;13.60;1.00;;;;;;6147140;23;20372;-80
2021/09/03 00:09:44;;;;;;;27.03;22.50;;;13.60;1.00;;;;;;6128650;23;20411;-81
2021/09/03 00:12:11;;;;;;;26.50;22.87;;;13.60;1.00;;;;;;6125005;23;20391;-80
2021/09/03 00:14:38;;;;;;;25.50;22.30;;;13.60;1.00;;;;;;6124141;23;20418;-84
2021/09/03 00:17:05;;;;;;;28.70;21.97;;;13.60;1.00;;;;;;6122700;23;20419;-83
2021/09/03 00:19:32;;;;;;;25.00;20.70;;;13.60;1.00;;;;;;6123635;23;20433;-82
2021/09/03 00:22:00;;;;;;;24.50;21.50;;;13.50;1.00;;;;;;6122529;23;20470;-82
2021/09/03 00:24:27;;;;;;;26.70;22.23;;;13.50;1.00;;;;;;6124071;23;20428;-83
2021/09/03 00:26:53;;;;;;;25.60;22.37;;;13.50;1.00;;;;;;6121039;23;20498;-84
2021/09/03 00:29:20;;;;;;;23.33;20.83;;;13.50;1.00;;;;;;6123808;23;21092;-83
2021/09/03 00:31:47;;;;;;;26.70;21.40;;;13.40;1.00;;;;;;6124169;23;20404;-82
2021/09/03 00:34:14;;;;;;;25.60;22.23;;;13.40;1.00;;;;;;6123696;23;20424;-84
2021/09/03 00:36:40;;;;;;;26.87;22.33;;;13.40;1.00;;;;;;6121845;23;20507;-83
2021/09/03 00:39:08;;;;;;;28.90;21.03;;;13.40;1.00;;;;;;6126314;23;21374;-82
2021/09/03 00:41:35;;;;;;;22.90;20.57;;;13.40;1.00;;;;;;6125002;23;20364;-83
2021/09/03 00:44:02;;;;;;;28.10;22.40;;;13.40;1.00;;;;;;6122274;23;20809;-85
2021/09/03 00:46:29;;;;;;;23.93;20.00;;;13.40;1.00;;;;;;6123712;23;20423;-82
2021/09/03 00:48:56;;;;;;;26.17;21.00;;;13.40;1.00;;;;;;6122796;23;20519;-81
2021/09/03 00:51:23;;;;;;;28.30;21.20;;;13.40;1.00;;;;;;6123659;23;20408;-84
2021/09/03 00:53:50;;;;;;;25.50;21.93;;;13.30;1.00;;;;;;6125392;23;21423;-83
2021/09/03 00:56:18;;;;;;;25.60;21.07;;;13.30;1.00;;;;;;6126465;23;20436;-82
2021/09/03 00:58:45;;;;;;;28.00;22.10;;;13.30;1.00;;;;;;6123952;23;20416;-83
2021/09/03 01:01:12;;;;;;;25.57;21.50;;;13.30;1.00;;;;;;6124053;23;20725;-83
2021/09/03 01:03:38;;;;;;;26.57;21.50;;;13.30;1.00;;;;;;6124500;23;21484;-84
2021/09/03 01:06:05;;;;;;;23.80;19.90;;;13.30;1.00;;;;;;6137517;23;20400;-82
2021/09/03 01:08:33;;;;;;;24.53;20.50;;;13.30;1.00;;;;;;6151091;23;20360;-81
2021/09/03 01:11:00;;;;;;;26.27;22.63;;;13.20;1.00;;;;;;6129831;23;20643;-83
2021/09/03 01:13:29;;;;;;;24.77;21.53;;;13.20;1.00;;;;;;6119620;23;20893;-82
2021/09/03 01:15:55;;;;;;;24.70;21.10;;;13.20;1.00;;;;;;6120335;23;20479;-81
2021/09/03 01:18:22;;;;;;;28.10;21.43;;;13.20;1.00;;;;;;6120095;23;20507;-81
2021/09/03 01:20:49;;;;;;;24.67;19.77;;;13.20;1.00;;;;;;6124410;23;20529;-80
2021/09/03 01:23:18;;;;;;;25.00;19.33;;;13.20;1.00;;;;;;6122174;23;20487;-80
2021/09/03 01:25:45;;;;;;;26.37;20.77;;;13.20;1.00;;;;;;6122849;23;21339;-82
2021/09/03 01:28:12;;;;;;;25.53;21.80;;;13.10;1.00;;;;;;6122604;23;21441;-83
2021/09/03 01:30:38;;;;;;;26.00;21.53;;;13.10;1.00;;;;;;6122904;23;20419;-83
2021/09/03 01:33:08;;;;;;;24.77;21.07;;;13.10;1.00;;;;;;6122370;23;20877;-82
2021/09/03 01:35:35;;;;;;;24.00;20.07;;;13.10;1.00;;;;;;6126910;23;20424;-83
2021/09/03 01:38:05;;;;;;;25.03;21.07;;;13.10;1.00;;;;;;6137874;23;20412;-83
2021/09/03 01:40:34;;;;;;;22.90;20.50;;;13.10;1.00;;;;;;6135306;23;21529;-82
2021/09/03 01:43:00;;;;;;;26.40;21.73;;;13.10;1.00;;;;;;6126463;23;21258;-81
2021/09/03 01:45:27;;;;;;;22.87;20.40;;;13.10;1.00;;;;;;6122832;23;20542;-83
2021/09/03 01:47:53;;;;;;;23.40;21.00;;;13.10;1.00;;;;;;6126411;23;20886;-85
2021/09/03 01:50:20;;;;;;;25.77;21.20;;;13.10;1.00;;;;;;6123983;23;20439;-81
2021/09/03 01:52:47;;;;;;;27.83;22.93;;;13.10;1.00;;;;;;6126702;23;20436;-82
2021/09/03 01:55:13;;;;;;;25.07;22.47;;;13.10;1.00;;;;;;6127186;23;20487;-82
2021/09/03 01:57:41;;;;;;;24.17;19.67;;;13.10;1.00;;;;;;6124491;23;20439;-82
2021/09/03 02:00:09;;;;;;;25.70;21.57;;;13.00;1.00;;;;;;6127571;23;20455;-81
2021/09/03 02:02:36;;;;;;;28.73;21.80;;;13.00;1.00;;;;;;6127539;23;20467;-82
2021/09/03 02:05:02;;;;;;;28.60;21.30;;;13.00;1.00;;;;;;6125148;23;20734;-82
2021/09/03 02:07:29;;;;;;;25.40;22.00;;;13.00;1.00;;;;;;6127217;23;20398;-81
2021/09/03 02:09:56;;;;;;;24.10;21.07;;;13.00;1.00;;;;;;6138424;23;20389;-81
2021/09/03 02:12:23;;;;;;;23.00;19.40;;;13.00;1.00;;;;;;6149953;23;20430;-80
2021/09/03 02:14:51;;;;;;;24.90;20.60;;;13.00;1.00;;;;;;6134119;23;20376;-84
2021/09/03 02:17:17;;;;;;;24.57;20.53;;;13.00;1.00;;;;;;6127826;23;20504;-81
2021/09/03 02:19:45;;;;;;;26.43;21.50;;;13.10;1.00;;;;;;6122995;23;20443;-83
2021/09/03 02:22:12;;;;;;;28.63;20.13;;;13.10;1.00;;;;;;6123835;23;20424;-83
2021/09/03 02:24:39;;;;;;;29.33;22.13;;;13.20;1.00;;;;;;6122582;23;20524;-83
2021/09/03 02:27:05;;;;;;;26.93;21.43;;;13.20;1.00;;;;;;6121017;23;20376;-82
2021/09/03 02:29:32;;;;;;;28.47;22.50;;;13.10;1.00;;;;;;6122694;23;20490;-82
2021/09/03 02:32:00;;;;;;;26.90;19.67;;;13.20;1.00;;;;;;6127767;23;20435;-82
2021/09/03 02:34:27;;;;;;;28.33;21.87;;;13.10;1.00;;;;;;6124770;23;20416;-83
2021/09/03 02:36:54;;;;;;;28.80;20.70;;;13.10;1.00;;;;;;6122655;23;20524;-81
2021/09/03 02:39:20;;;;;;;30.40;22.17;;;13.20;1.00;;;;;;6122585;23;20444;-81
2021/09/03 02:41:47;;;;;;;31.37;23.13;;;13.20;1.00;;;;;;6124186;23;20540;-81
2021/09/03 02:44:13;;;;;;;27.40;21.30;;;13.10;1.00;;;;;;6122773;23;20419;-82
2021/09/03 02:46:40;;;;;;;23.50;21.10;;;13.10;1.00;;;;;;6123411;23;20416;-82
2021/09/03 02:49:08;;;;;;;31.60;21.03;;;13.10;1.00;;;;;;6125266;23;20440;-83
2021/09/03 02:51:35;;;;;;;26.43;19.90;;;13.10;1.00;;;;;;6123350;23;20447;-83
2021/09/03 02:54:02;;;;;;;26.03;20.50;;;13.10;1.00;;;;;;6125663;23;20476;-83
2021/09/03 02:56:28;;;;;;;26.30;20.40;;;13.10;1.00;;;;;;6123459;23;21458;-83
2021/09/03 02:58:55;;;;;;;28.43;19.97;;;13.00;1.00;;;;;;6124035;23;20433;-84
2021/09/03 03:01:22;;;;;;;21.20;18.23;;;13.10;1.00;;;;;;6120141;23;20423;-85
2021/09/03 03:03:48;;;;;;;23.30;19.57;;;13.10;1.00;;;;;;6123523;23;20932;-82
2021/09/03 03:06:17;;;;;;;27.57;20.77;;;13.10;1.00;;;;;;6121769;23;21281;-83
2021/09/03 03:08:43;;;;;;;30.70;22.00;;;13.10;1.00;;;;;;6123834;23;20481;-83
2021/09/03 03:11:10;;;;;;;30.07;21.33;;;13.10;1.00;;;;;;6126003;23;21332;-81
2021/09/03 03:13:37;;;;;;;24.93;19.80;;;13.10;1.00;;;;;;6126309;23;20495;-82
2021/09/03 03:16:04;;;;;;;26.00;18.87;;;13.10;1.00;;;;;;6149462;23;20462;-80
2021/09/03 03:18:31;;;;;;;25.17;19.73;;;13.10;1.00;;;;;;6150748;23;20388;-80
2021/09/03 03:20:58;;;;;;;24.00;19.30;;;13.10;1.00;;;;;;6134847;23;20463;-81
2021/09/03 03:23:26;;;;;;;27.03;20.33;;;13.10;1.00;;;;;;6120905;23;20440;-82
2021/09/03 03:25:54;;;;;;;24.97;20.80;;;13.10;1.00;;;;;;6119289;23;20416;-82
2021/09/03 03:28:21;;;;;;;25.10;18.53;;;13.10;1.00;;;;;;6119791;23;20366;-82
2021/09/03 03:30:47;;;;;;;23.30;18.53;;;13.10;1.00;;;;;;6124125;23;20400;-83
2021/09/03 03:33:14;;;;;;;24.80;18.70;;;13.10;1.00;;;;;;6126387;23;20495;-82
2021/09/03 03:35:41;;;;;;;22.93;19.43;;;13.10;1.00;;;;;;6123848;23;20380;-83
2021/09/03 03:38:08;;;;;;;21.57;18.87;;;13.10;1.00;;;;;;6126943;23;21255;-82
2021/09/03 03:40:36;;;;;;;27.20;19.90;;;13.10;1.00;;;;;;6126270;23;20412;-83
2021/09/03 03:43:02;;;;;;;26.30;19.37;;;13.00;1.00;;;;;;6126554;23;20432;-83
2021/09/03 03:45:29;;;;;;;24.03;20.23;;;13.10;1.00;;;;;;6124563;23;20467;-82
2021/09/03 03:47:56;;;;;;;29.27;19.97;;;13.10;1.00;;;;;;6126322;23;20391;-83
2021/09/03 03:50:22;;;;;;;24.77;20.10;;;13.10;1.00;;;;;;6125173;23;21001;-83
2021/09/03 03:52:49;;;;;;;23.97;19.17;;;13.10;1.00;;;;;;6128333;23;21598;-85
2021/09/03 03:55:16;;;;;;;22.93;19.77;;;13.10;1.00;;;;;;6145703;23;20488;-82
2021/09/03 03:57:44;;;;;;;27.40;19.23;;;13.10;1.00;;;;;;6151921;23;20376;-80
2021/09/03 04:00:12;;;;;;;24.80;18.87;;;13.00;1.00;;;;;;6132261;23;20412;-82
2021/09/03 04:02:38;;;;;;;23.80;20.47;;;13.00;1.00;;;;;;6125521;23;20409;-81
2021/09/03 04:05:06;;;;;;;23.77;18.50;;;13.00;1.00;;;;;;6124930;23;20447;-83
2021/09/03 04:07:33;;;;;;;24.67;19.77;;;13.10;1.00;;;;;;6127210;23;20487;-82
2021/09/03 04:10:00;;;;;;;28.03;22.83;;;13.10;1.00;;;;;;6123370;23;20826;-79
2021/09/03 04:12:27;;;;;;;25.23;20.00;;;13.10;1.00;;;;;;6123083;23;20482;-85
2021/09/03 04:14:55;;;;;;;25.13;19.10;;;13.10;1.00;;;;;;6125655;23;20451;-86
2021/09/03 04:17:21;;;;;;;23.33;19.00;;;13.20;1.00;;;;;;6127330;23;20451;-83
2021/09/03 04:19:48;;;;;;;26.07;20.17;;;13.20;1.00;;;;;;6130514;23;20411;-85
2021/09/03 04:22:15;;;;;;;23.63;20.20;;;13.20;1.00;;;;;;6128083;23;20391;-82
2021/09/03 04:24:42;;;;;;;27.10;20.20;;;13.20;1.00;;;;;;6126524;23;21024;-80
2021/09/03 04:27:08;;;;;;;28.33;20.83;;;13.20;1.00;;;;;;6126418;23;20498;-86
2021/09/03 04:29:35;;;;;;;25.00;21.20;;;13.30;1.00;;;;;;6128194;23;20411;-85
2021/09/03 04:32:04;;;;;;;25.43;21.27;;;13.30;1.00;;;;;;6128175;23;20873;-85
2021/09/03 04:34:31;;;;;;;23.23;20.37;;;13.30;1.00;;;;;;6127073;23;21299;-85
2021/09/03 04:36:58;;;;;;;23.07;18.03;;;13.40;1.00;;;;;;6128530;23;20472;-85
2021/09/03 04:39:25;;;;;;;23.60;19.80;;;13.40;1.00;;;;;;6125972;23;20400;-85
2021/09/03 04:41:52;;;;;;;27.40;18.80;;;13.40;1.00;;;;;;6129924;23;20901;-85
2021/09/03 04:44:19;;;;;;;22.43;19.07;;;13.50;1.00;;;;;;6137349;23;20396;-84
2021/09/03 04:46:46;;;;;;;27.30;19.90;;;13.50;1.00;;;;;;6129295;23;20582;-83
2021/09/03 04:49:14;;;;;;;24.87;20.33;;;13.40;1.00;;;;;;6130216;23;20407;-83
2021/09/03 04:51:40;;;;;;;22.00;18.67;;;13.40;1.00;;;;;;6127849;23;20404;-83
2021/09/03 04:54:07;;;;;;;25.43;18.73;;;13.30;1.00;;;;;;6130858;23;20518;-82
2021/09/03 04:56:34;;;;;;;22.40;18.20;;;13.40;1.00;;;;;;6128507;23;20475;-82
2021/09/03 04:59:01;;;;;;;21.63;18.53;;;13.30;1.00;;;;;;6126582;23;20831;-83
2021/09/03 05:01:27;;;;;;;21.57;19.33;;;13.40;1.00;;;;;;6140688;23;20391;-81
2021/09/03 05:03:54;;;;;;;20.97;18.23;;;13.40;1.00;;;;;;6157042;23;20361;-81
2021/09/03 05:06:22;;;;;;;28.00;19.13;;;13.40;1.00;;;;;;6150989;23;20380;-84
2021/09/03 05:08:49;;;;;;;21.47;18.57;;;13.40;1.00;;;;;;6129853;23;20450;-82
2021/09/03 05:11:16;;;;;;;20.90;18.57;;;13.40;1.00;;;;;;6122436;23;20419;-81
2021/09/03 05:13:43;;;;;;;22.17;19.77;;;13.50;1.00;;;;;;6126091;23;20384;-81
2021/09/03 05:16:10;;;;;;;21.03;17.83;;;13.50;1.00;;;;;;6149640;23;20423;-81
2021/09/03 05:18:36;;;;;;;23.83;19.23;;;13.50;1.00;;;;;;6149833;23;20413;-80
2021/09/03 05:21:03;;;;;;;25.60;21.00;;;13.60;1.00;;;;;;6149004;23;20431;-82
2021/09/03 05:23:31;;;;;;;25.20;20.43;;;13.60;1.00;;;;;;6140684;23;20377;-83
2021/09/03 05:25:59;;;;;;;28.70;20.73;;;13.60;1.00;;;;;;6130428;23;20404;-79
2021/09/03 05:28:27;;;;;;;29.67;21.50;;;13.70;1.00;;;;;;6132521;23;20439;-83
2021/09/03 05:30:54;;;;;;;23.37;19.53;;;13.80;1.00;;;;;;6130603;23;21075;-82
2021/09/03 05:33:21;;;;;;;25.23;20.47;;;13.80;1.00;;;;;;6129585;23;20383;-81
2021/09/03 05:35:47;;;;;;;33.30;20.57;;;13.90;1.00;;;;;;6133978;23;20468;-81
2021/09/03 05:38:14;;;;;;;23.63;19.30;;;14.00;1.00;;;;;;6132873;23;20388;-82
2021/09/03 05:40:42;;;;;;;29.40;23.70;;;14.00;1.00;;;;;;6134500;23;20407;-77
2021/09/03 05:43:09;;;;;;;26.70;19.77;;;14.10;1.00;;;;;;6130580;23;21100;-81
2021/09/03 05:45:36;;;;;;;29.67;23.70;;;14.20;1.00;;;;;;6132282;23;20466;-79
2021/09/03 05:48:03;;;;;;;26.00;21.93;;;14.20;1.00;;;;;;6140311;23;20423;-83
2021/09/03 05:50:31;;;;;;;29.90;23.53;;;14.30;1.00;;;;;;6144130;23;20447;-84
2021/09/03 05:52:58;;;;;;;27.50;21.77;;;14.40;1.00;;;;;;6136908;23;20377;-82
2021/09/03 05:55:25;;;;;;;25.10;20.97;;;14.40;1.00;;;;;;6136740;23;20401;-81
2021/09/03 05:57:54;;;;;;;22.10;19.10;;;14.50;1.00;;;;;;6134410;23;20416;-80
2021/09/03 06:00:21;;;;;;;25.50;19.00;;;14.60;1.00;;;;;;6133999;23;20410;-78
2021/09/03 06:02:47;;;;;;;28.93;20.70;;;14.60;1.00;;;;;;6131166;23;20375;-81
2021/09/03 06:05:14;;;;;;;29.33;22.03;;;14.60;1.00;;;;;;6134628;23;20416;-81
2021/09/03 06:07:41;;;;;;;23.07;19.40;;;14.70;1.00;;;;;;6146106;23;20390;-81
2021/09/03 06:10:09;;;;;;;22.00;19.60;;;14.70;1.00;;;;;;6149407;23;20383;-80
2021/09/03 06:12:37;;;;;;;21.97;19.67;;;14.80;1.00;;;;;;6131016;23;20480;-81
2021/09/03 06:15:06;;;;;;;23.20;20.70;;;14.80;1.00;;;;;;6129703;23;20378;-82
2021/09/03 06:17:33;;;;;;;25.40;20.73;;;14.90;1.00;;;;;;6128465;23;20397;-84
2021/09/03 06:20:00;;;;;;;26.03;20.70;;;15.00;1.00;;;;;;6129117;23;21179;-81
2021/09/03 06:22:26;;;;;;;26.07;18.80;;;15.00;1.00;;;;;;6127798;23;20396;-78
2021/09/03 06:24:53;;;;;;;21.87;19.40;;;15.00;1.00;;;;;;6124470;23;20406;-82
2021/09/03 06:27:21;;;;;;;22.93;20.57;;;15.10;1.00;;;;;;6134573;23;20398;-79
2021/09/03 06:29:48;;;;;;;24.50;20.00;;;15.20;1.00;;;;;;6135749;23;20423;-80
2021/09/03 06:32:17;;;;;;;28.70;21.43;;;15.30;1.00;;;;;;6131159;23;20365;-80
2021/09/03 06:34:45;;;;;;;24.30;20.50;;;15.30;1.00;;;;;;6128177;23;20406;-81
2021/09/03 06:37:13;;;;;;;24.27;19.33;;;15.40;1.00;;;;;;6129711;23;20397;-81
2021/09/03 06:39:40;;;;;;;23.83;20.37;;;15.40;1.00;;;;;;6128483;23;20428;-81
2021/09/03 06:42:07;;;;;;;25.37;20.27;;;15.50;1.00;;;;;;6130652;23;20413;-81
2021/09/03 06:44:35;;;;;;;25.60;19.63;;;15.60;1.00;;;;;;6127013;23;21647;-81
2021/09/03 06:47:03;;;;;;;22.80;19.73;;;15.70;1.00;;;;;;6129398;23;20771;-81
2021/09/03 06:49:32;;;;;;;23.00;19.57;;;15.70;1.00;;;;;;6129050;23;20470;-81
2021/09/03 06:51:58;;;;;;;21.93;19.27;;;15.80;1.00;;;;;;6129888;23;20400;-83
2021/09/03 06:54:25;;;;;;;21.73;17.93;;;15.80;1.00;;;;;;6126157;23;20473;-82
2021/09/03 06:56:52;;;;;;;24.13;19.87;;;15.90;1.00;;;;;;6129096;23;20975;-82
2021/09/03 06:59:19;;;;;;;22.83;18.07;;;16.00;1.00;;;;;;6133719;23;20421;-80
2021/09/03 07:01:46;;;;;;;22.40;18.80;;;16.10;1.00;;;;;;6134362;23;20390;-80
2021/09/03 07:04:12;;;;;;;19.97;17.53;;;16.20;1.00;;;;;;6133692;23;20408;-82
2021/09/03 07:06:40;;;;;;;20.57;18.23;;;16.30;1.00;;;;;;6130194;23;20389;-80
2021/09/03 07:09:07;;;;;;;20.60;18.10;;;16.40;1.00;;;;;;6139870;22;20455;-80
2021/09/03 07:11:35;;;;;;;22.03;19.40;;;16.40;1.00;;;;;;6150709;23;20385;-80
2021/09/03 07:14:04;;;;;;;21.03;18.43;;;16.50;1.00;;;;;;6147851;23;20407;-79
2021/09/03 07:16:32;;;;;;;21.83;17.07;;;16.60;1.00;;;;;;6137926;23;20367;-81
2021/09/03 07:19:02;;;;;;;20.53;17.37;;;16.60;1.00;;;;;;6131431;23;20417;-81
2021/09/03 07:21:29;;;;;;;19.27;17.27;;;16.70;1.00;;;;;;6131713;23;20449;-82
2021/09/03 07:23:57;;;;;;;21.00;17.80;;;16.80;1.00;;;;;;6130633;23;20416;-78
2021/09/03 07:26:24;;;;;;;22.03;17.10;;;16.90;1.00;;;;;;6128670;23;20515;-80
2021/09/03 07:28:51;;;;;;;18.53;15.80;;;17.00;1.00;;;;;;6130041;23;20391;-81
2021/09/03 07:31:18;;;;;;;19.87;17.03;;;17.10;1.00;;;;;;6126929;23;20363;-84
2021/09/03 07:33:45;;;;;;;19.20;16.40;;;17.20;1.00;;;;;;6130919;23;20426;-82
2021/09/03 07:36:12;;;;;;;19.03;15.60;;;17.30;1.00;;;;;;6131400;23;20375;-84
2021/09/03 07:38:39;;;;;;;20.77;16.70;;;17.40;1.00;;;;;;6130179;23;20457;-82
2021/09/03 07:41:07;;;;;;;19.00;15.77;;;17.50;1.00;;;;;;6131804;23;20470;-84
2021/09/03 07:43:34;;;;;;;17.03;15.03;;;17.70;1.00;;;;;;6129920;23;20439;-83
2021/09/03 07:46:01;;;;;;;16.40;14.50;;;17.80;1.00;;;;;;6129416;23;20435;-83
2021/09/03 07:48:27;;;;;;;18.80;15.63;;;18.00;1.00;;;;;;6130747;23;20407;-82
2021/09/03 07:50:54;;;;;;;17.80;14.70;;;18.20;1.00;;;;;;6129542;23;20858;-84
2021/09/03 07:53:21;;;;;;;16.50;13.60;;;18.30;1.00;;;;;;6128773;23;20446;-83
2021/09/03 07:55:48;;;;;;;17.70;13.70;;;18.30;1.00;;;;;;6130268;23;20841;-83
2021/09/03 07:58:16;;;;;;;17.03;13.93;;;18.40;1.00;;;;;;6131008;23;20469;-81
2021/09/03 08:00:43;;;;;;;15.90;13.50;;;18.40;1.00;;;;;;6129779;23;20403;-83
2021/09/03 08:03:10;;;;;;;17.20;14.70;;;18.50;1.00;;;;;;6132722;23;20443;-81
2021/09/03 08:05:37;;;;;;;17.57;14.90;;;18.60;1.00;;;;;;6127422;23;20438;-82
2021/09/03 08:08:04;;;;;;;20.00;15.10;;;18.70;1.00;;;;;;6129235;23;20423;-83
2021/09/03 08:10:35;;;;;;;17.37;14.80;;;18.80;1.00;;;;;;6133146;23;20589;-81
2021/09/03 08:13:03;;;;;;;17.57;14.37;;;18.90;1.00;;;;;;6130762;23;21619;-84
2021/09/03 08:15:32;;;;;;;25.80;15.87;;;19.00;1.00;;;;;;6150617;23;20482;-79
2021/09/03 08:17:59;;;;;;;20.30;16.30;;;19.10;1.00;;;;;;6151543;23;20383;-81
2021/09/03 08:20:26;;;;;;;21.27;16.30;;;19.10;1.00;;;;;;6137022;23;20438;-83
2021/09/03 08:22:54;;;;;;;15.87;14.27;;;19.10;1.00;;;;;;6135428;23;20426;-83
2021/09/03 08:25:21;;;;;;;20.83;15.17;;;19.10;1.00;;;;;;6133782;23;21555;-82
2021/09/03 08:27:48;;;;;;;19.40;14.63;;;19.10;1.00;;;;;;6135137;23;21007;-83
2021/09/03 08:30:16;;;;;;;18.07;15.20;;;19.10;1.00;;;;;;6137201;23;21162;-83
2021/09/03 08:32:45;;;;;;;17.13;14.80;;;19.20;1.00;;;;;;6137163;23;21231;-82
2021/09/03 08:35:12;;;;;;;16.13;14.43;;;19.30;1.00;;;;;;6135867;23;20392;-82
2021/09/03 08:37:58;;;;;;;16.23;14.60;;;19.40;1.00;;;;;;6146101;23;20376;-84
2021/09/03 08:40:26;;;;;;;16.70;14.20;;;19.50;1.00;;;;;;6157001;23;20415;-84
2021/09/03 08:42:52;;;;;;;17.60;14.73;;;19.70;1.00;;;;;;6158006;23;20431;-83
2021/09/03 08:45:19;;;;;;;16.30;14.00;;;19.90;1.00;;;;;;6156460;23;20926;-83
2021/09/03 08:47:47;;;;;;;16.80;14.83;;;20.00;1.00;;;;;;6156992;23;20403;-82
2021/09/03 08:50:17;;;;;;;16.37;14.20;;;19.90;1.00;;;;;;6154639;23;20376;-82
2021/09/03 08:52:45;;;;;;;17.50;14.07;;;19.90;1.00;;;;;;6150972;23;20750;-82
2021/09/03 08:55:13;;;;;;;19.83;15.80;;;20.00;1.00;;;;;;6144449;23;20912;-86
2021/09/03 08:57:40;;;;;;;15.40;13.30;;;20.10;1.00;;;;;;6142890;23;20384;-85
2021/09/03 09:00:12;;;;;;;16.00;14.33;;;20.30;1.00;;;;;;6153104;23;20352;-82
2021/09/03 09:02:59;;;;;;;18.70;15.10;;;20.40;1.00;;;;;;6156908;23;20378;-84
2021/09/03 09:05:45;;;;;;;16.17;14.30;;;20.40;1.00;;;;;;6158617;23;20404;-85
2021/09/03 09:08:13;;;;;;;15.63;13.93;;;20.40;1.00;;;;;;6159265;23;20399;-86
2021/09/03 09:10:46;;;;;;;18.17;13.50;;;20.40;1.00;;;;;;6159472;23;20345;-85
2021/09/03 09:13:15;;;;;;;16.80;15.10;;;20.50;1.00;;;;;;6158652;23;20580;-83
2021/09/03 09:15:42;;;;;;;14.37;12.83;;;20.50;1.00;;;;;;6157087;23;20380;-84
2021/09/03 09:18:11;;;;;;;15.13;13.53;;;20.70;1.00;;;;;;6158208;23;20400;-85
2021/09/03 09:20:38;;;;;;;15.87;13.57;;;20.90;1.00;;;;;;6158766;23;20388;-86
2021/09/03 09:23:07;;;;;;;16.33;13.10;;;21.40;1.00;;;;;;6158194;23;20378;-84
2021/09/03 09:25:37;;;;;;;12.30;11.10;;;22.20;1.00;;;;;;6156099;23;20354;-84
2021/09/03 09:28:17;;;;;;;18.23;12.80;;;23.60;1.00;;;;;;6155820;23;20385;-84
2021/09/03 09:30:45;;;;;;;15.80;12.73;;;25.30;1.00;;;;;;6155224;23;20396;-83
2021/09/03 09:33:15;;;;;;;11.83;10.63;;;26.60;1.00;;;;;;6157623;23;20386;-85
2021/09/03 09:35:45;;;;;;;12.93;11.50;;;27.20;1.00;;;;;;6154701;23;20419;-84
2021/09/03 09:38:13;;;;;;;12.70;10.90;;;27.40;1.00;;;;;;6154287;23;20458;-84
2021/09/03 09:40:45;;;;;;;16.00;10.43;;;27.70;1.00;;;;;;6154254;23;20373;-85
2021/09/03 09:43:27;;;;;;;12.50;10.77;;;27.90;1.00;;;;;;6151403;23;20361;-84
2021/09/03 09:46:15;;;;;;;13.63;10.97;;;28.30;1.00;;;;;;6153537;23;20414;-83
2021/09/03 09:48:57;;;;;;;11.43;10.30;;;28.50;1.00;;;;;;6144965;23;20475;-83
2021/09/03 09:51:26;;;;;;;12.50;10.63;;;29.10;1.00;;;;;;6132011;23;20505;-86
2021/09/03 09:53:54;;;;;;;11.27;10.23;;;29.70;1.00;;;;;;6133550;23;20395;-83
2021/09/03 09:56:22;;;;;;;12.90;9.87;;;30.10;1.00;;;;;;6130012;23;20457;-82
2021/09/03 10:02:15;;;;;;;12.37;10.07;;;30.40;1.00;;;;;;6119433;23;20439;-80
2021/09/03 10:04:43;;;;;;;11.07;9.93;;;30.90;1.00;;;;;;6125573;23;20370;-81
2021/09/03 10:07:11;;;;;;;9.97;8.97;;;31.20;1.00;;;;;;6124857;23;20437;-82
2021/09/03 10:09:37;;;;;;;10.83;9.57;;;31.20;1.00;;;;;;6126286;23;20434;-80
2021/09/03 10:12:06;;;;;;;11.70;9.70;;;31.40;1.00;;;;;;6125818;23;20854;-80
2021/09/03 10:14:34;;;;;;;12.70;10.40;;;32.00;1.00;;;;;;6129693;23;20407;-80
2021/09/03 10:17:01;;;;;;;10.80;9.73;;;32.10;1.00;;;;;;6127722;23;20411;-81
2021/09/03 10:19:32;;;;;;;12.80;10.60;;;32.00;1.00;;;;;;6127287;23;20478;-83
2021/09/03 10:22:05;;;;;;;11.20;10.10;;;32.40;1.00;;;;;;6126480;23;21182;-80
2021/09/03 10:24:32;;;;;;;11.03;9.23;;;32.60;1.00;;;;;;6124978;23;20415;-81
2021/09/03 10:27:00;;;;;;;11.80;9.13;;;32.60;1.00;;;;;;6126966;23;20424;-81
2021/09/03 10:29:30;;;;;;;11.07;9.97;;;32.90;1.00;;;;;;6126088;23;20376;-81
2021/09/03 10:32:22;;;;;;;10.87;9.73;;;33.00;1.00;;;;;;6132704;23;20364;-80
2021/09/03 10:34:57;;;;;;;11.27;9.20;;;33.20;1.00;;;;;;6143553;23;20400;-77
2021/09/03 10:37:31;;;;;;;8.97;8.07;;;33.80;1.00;;;;;;6145842;23;20402;-80
2021/09/03 10:40:02;;;;;;;9.00;8.10;;;33.80;1.00;;;;;;6143781;23;20658;-81
2021/09/03 10:42:48;;;;;;;12.80;9.10;;;34.00;1.00;;;;;;6127781;23;20384;-82
2021/09/03 10:45:18;;;;;;;9.13;8.33;;;34.20;1.00;;;;;;6129903;23;20410;-80
2021/09/03 10:47:46;;;;;;;11.10;9.60;;;34.50;1.00;;;;;;6129865;23;20404;-81
2021/09/03 10:50:19;;;;;;;8.90;8.00;;;34.70;1.00;;;;;;6142698;23;21676;-80
2021/09/03 10:53:32;;;;;;;9.83;8.33;;;34.70;1.00;;;;;;6148127;23;20414;-81
2021/09/03 10:56:06;;;;;;;10.37;8.90;;;34.50;1.00;;;;;;6141356;23;20375;-80
2021/09/03 10:58:42;;;;;;;10.03;8.27;;;35.00;1.00;;;;;;6124658;23;20478;-81
2021/09/03 11:01:38;;;;;;;10.20;8.00;;;34.90;1.00;;;;;;6127083;23;20423;-82
2021/09/03 11:04:10;;;;;;;8.73;7.90;;;35.30;1.00;;;;;;6128989;23;20390;-82
2021/09/03 11:06:39;;;;;;;9.10;8.30;;;35.10;1.00;;;;;;6125901;23;20511;-82
2021/09/03 11:09:19;;;;;;;12.00;9.00;;;34.70;1.00;;;;;;6132638;23;20412;-81
2021/09/03 11:11:48;;;;;;;9.57;8.57;;;34.60;1.00;;;;;;6137558;23;20447;-80
2021/09/03 11:14:17;;;;;;;9.10;8.20;;;34.90;1.00;;;;;;6127661;23;20380;-81
2021/09/03 11:16:46;;;;;;;10.20;8.47;;;35.20;1.00;;;;;;6128963;23;20432;-81
2021/09/03 11:19:16;;;;;;;10.10;9.10;;;35.90;1.00;;;;;;6128195;23;20400;-82
2021/09/03 11:21:45;;;;;;;9.67;8.77;;;36.50;1.00;;;;;;6137405;23;20392;-81
2021/09/03 11:24:14;;;;;;;10.80;9.70;;;37.00;1.00;;;;;;6142762;23;20399;-81
2021/09/03 11:26:43;;;;;;;10.03;9.13;;;37.20;1.00;;;;;;6142471;23;20454;-82
2021/09/03 11:29:22;;;;;;;9.07;7.67;;;36.90;1.00;;;;;;6142677;23;20414;-82
2021/09/03 11:32:01;;;;;;;10.20;8.53;;;37.00;1.00;;;;;;6141559;23;20518;-82
2021/09/03 11:34:50;;;;;;;11.23;9.00;;;37.00;1.00;;;;;;6144836;23;20915;-82
2021/09/03 11:37:32;;;;;;;8.37;7.57;;;37.20;1.00;;;;;;6141621;23;20376;-81
2021/09/03 11:40:09;;;;;;;8.97;7.50;;;36.90;1.00;;;;;;6135113;23;20466;-81
2021/09/03 11:42:38;;;;;;;9.70;8.70;;;36.50;1.00;;;;;;6126733;23;20427;-82
2021/09/03 11:45:09;;;;;;;9.70;8.67;;;36.40;1.00;;;;;;6128447;23;21258;-82
2021/09/03 11:47:39;;;;;;;8.40;7.50;;;37.00;1.00;;;;;;6141772;23;20376;-81
2021/09/03 11:50:09;;;;;;;9.10;7.50;;;37.20;1.00;;;;;;6144657;23;20411;-80
2021/09/03 11:52:36;;;;;;;10.60;8.20;;;37.30;1.00;;;;;;6144123;23;20430;-80
2021/09/03 11:55:07;;;;;;;10.53;9.50;;;37.40;1.00;;;;;;6148158;23;20360;-80
2021/09/03 11:57:50;;;;;;;8.37;7.57;;;37.60;1.00;;;;;;6147859;23;20487;-79
2021/09/03 12:00:21;;;;;;;10.20;8.17;;;37.30;1.00;;;;;;6146136;23;20368;-79
2021/09/03 12:02:49;;;;;;;8.40;7.63;;;37.70;1.00;;;;;;6133880;23;20386;-80
2021/09/03 12:05:20;;;;;;;9.23;7.17;;;37.70;1.00;;;;;;6133636;23;20360;-84
2021/09/03 12:08:04;;;;;;;8.10;7.40;;;37.90;1.00;;;;;;6132187;23;20424;-81
2021/09/03 12:10:40;;;;;;;9.27;8.37;;;38.20;1.00;;;;;;6128807;23;20999;-82
2021/09/03 12:13:09;;;;;;;8.37;6.90;;;38.40;1.00;;;;;;6129861;23;20414;-82
2021/09/03 12:15:38;;;;;;;8.60;7.80;;;38.60;1.00;;;;;;6132644;23;20364;-82
2021/09/03 12:18:18;;;;;;;10.90;8.70;;;38.60;1.00;;;;;;6130546;23;20395;-84
2021/09/03 12:20:49;;;;;;;8.53;7.20;;;38.20;1.00;;;;;;6133679;23;20375;-82
2021/09/03 12:23:16;;;;;;;8.07;7.27;;;38.30;1.00;;;;;;6129305;23;20759;-83
2021/09/03 12:25:43;;;;;;;7.57;6.87;;;38.40;1.00;;;;;;6127807;23;20408;-84
2021/09/03 12:28:12;;;;;;;7.80;6.77;;;38.50;1.00;;;;;;6132073;23;20408;-82
2021/09/03 12:30:41;;;;;;;8.20;7.40;;;38.90;1.00;;;;;;6133679;23;20427;-85
2021/09/03 12:33:26;;;;;;;7.97;6.57;;;39.40;1.00;;;;;;6125195;23;20407;-85
2021/09/03 12:35:55;;;;;;;7.23;6.53;;;40.00;1.00;;;;;;6128997;23;20869;-84
2021/09/03 12:38:38;;;;;;;8.10;7.30;;;39.90;1.00;;;;;;6125127;23;20399;-82
2021/09/03 12:41:28;;;;;;;7.97;6.73;;;39.80;1.00;;;;;;6124184;23;20458;-83
2021/09/03 12:43:58;;;;;;;7.47;6.77;;;39.40;1.00;;;;;;6143729;23;20415;-80
2021/09/03 12:46:27;;;;;;;6.77;6.17;;;39.40;1.00;;;;;;6139402;23;20387;-83
2021/09/03 12:49:16;;;;;;;6.90;6.20;;;39.40;1.00;;;;;;6130349;23;20419;-85
2021/09/03 12:51:45;;;;;;;7.80;7.10;;;39.60;1.00;;;;;;6134441;23;20360;-85
2021/09/03 12:54:13;;;;;;;6.50;5.87;;;39.50;1.00;;;;;;6129359;23;20544;-83